Time;durP1;ratioP1;P1;durP2;ratioP2;P2;SDS_P1;SDS_P2;PMS_P1;PMS_P2;Temp;Humidity;BMP_temperature;BMP_pressure;BME280_temperature;BME280_humidity;BME280_pressure;Samples;Min_cycle;Max_cycle;Signal;HPM_P1;HPM_P2
2022/09/05 00:00:32;;;;;;;2.83;2.00;;;;;;;17.77;74.19;100178.22;12218831;19;19928;-80
2022/09/05 00:04:40;;;;;;;3.67;2.40;;;;;;;17.73;75.29;100181.84;12192646;19;20107;-79
2022/09/05 00:08:56;;;;;;;3.08;2.15;;;;;;;17.68;75.54;100177.13;12212860;19;20070;-79
2022/09/05 00:13:00;;;;;;;5.00;2.45;;;;;;;17.64;75.71;100173.25;12201589;19;20014;-79
2022/09/05 00:17:32;;;;;;;5.68;2.38;;;;;;;17.61;76.62;100175.75;12222896;19;20098;-81
2022/09/05 00:22:31;;;;;;;3.53;2.50;;;;;;;17.56;77.66;100171.06;12230191;19;20054;-81
2022/09/05 00:27:21;;;;;;;3.45;2.22;;;;;;;17.51;77.52;100169.13;12255069;19;20126;-83
2022/09/05 00:31:45;;;;;;;2.95;2.50;;;;;;;17.50;77.93;100161.91;12227252;19;20049;-82
2022/09/05 00:36:39;;;;;;;3.80;2.60;;;;;;;17.48;78.72;100166.09;12215845;19;20010;-82
2022/09/05 00:40:47;;;;;;;4.38;2.25;;;;;;;17.47;78.46;100170.84;12202554;19;20043;-82
2022/09/05 00:45:01;;;;;;;3.38;2.30;;;;;;;17.50;78.50;100161.06;12223298;19;20013;-80
2022/09/05 00:49:29;;;;;;;6.32;2.25;;;;;;;17.53;78.57;100166.06;12207612;19;20013;-81
2022/09/05 00:53:50;;;;;;;3.58;1.98;;;;;;;17.58;78.36;100165.19;12214818;19;20003;-78
2022/09/05 00:58:26;;;;;;;3.70;2.15;;;;;;;17.60;78.29;100161.00;12191716;19;20098;-78
2022/09/05 01:02:55;;;;;;;4.13;2.45;;;;;;;17.62;78.16;100160.72;12214552;19;20019;-79
2022/09/05 01:07:02;;;;;;;2.60;1.90;;;;;;;17.63;77.76;100154.03;12192725;19;20013;-78
2022/09/05 01:11:34;;;;;;;5.47;2.17;;;;;;;17.66;78.49;100143.13;12215716;19;20917;-78
2022/09/05 01:15:52;;;;;;;3.67;2.22;;;;;;;17.68;77.82;100149.25;12213799;19;20010;-78
2022/09/05 01:20:24;;;;;;;4.00;2.00;;;;;;;17.70;78.00;100135.88;12194880;19;20018;-78
2022/09/05 01:24:42;;;;;;;3.55;1.85;;;;;;;17.73;77.09;100129.72;12211963;19;20014;-77
2022/09/05 01:29:08;;;;;;;3.15;2.30;;;;;;;17.85;76.54;100134.13;12192972;19;20078;-79
2022/09/05 01:33:45;;;;;;;2.72;1.90;;;;;;;17.94;76.23;100133.22;12212988;19;20059;-79
2022/09/05 01:38:10;;;;;;;3.15;2.10;;;;;;;17.96;76.14;100136.53;12192847;19;20021;-78
2022/09/05 01:42:51;;;;;;;3.85;1.85;;;;;;;17.97;76.87;100142.97;12216184;19;19998;-79
2022/09/05 01:47:08;;;;;;;2.85;1.80;;;;;;;17.94;76.12;100129.59;12191723;19;20011;-79
2022/09/05 01:51:35;;;;;;;3.17;1.75;;;;;;;17.93;76.65;100128.75;12206330;19;20010;-78
2022/09/05 01:55:57;;;;;;;3.20;1.88;;;;;;;17.93;77.02;100122.34;12186938;19;20006;-78
2022/09/05 02:00:23;;;;;;;2.72;2.03;;;;;;;17.93;76.74;100125.94;12215355;19;20016;-79
2022/09/05 02:04:51;;;;;;;2.33;1.80;;;;;;;17.99;76.54;100123.97;12186663;19;20074;-78
2022/09/05 02:08:58;;;;;;;5.78;1.77;;;;;;;18.02;76.02;100122.56;12212943;19;20007;-78
2022/09/05 02:13:18;;;;;;;3.22;1.67;;;;;;;18.05;76.28;100117.22;12191223;19;20081;-78
2022/09/05 02:17:39;;;;;;;3.22;1.65;;;;;;;18.14;75.87;100103.47;12212690;19;20061;-79
2022/09/05 02:22:09;;;;;;;3.45;1.85;;;;;;;18.31;75.26;100111.41;12191489;19;20475;-79
2022/09/05 02:26:35;;;;;;;2.80;1.80;;;;;;;18.43;74.64;100103.47;12216011;19;20002;-79
2022/09/05 02:30:43;;;;;;;4.03;1.70;;;;;;;18.47;74.63;100106.50;12214176;19;20066;-78
2022/09/05 02:35:08;;;;;;;3.83;1.98;;;;;;;18.47;74.94;100100.91;12187386;19;20010;-79
2022/09/05 02:39:36;;;;;;;2.65;1.60;;;;;;;18.47;75.39;100096.16;12206090;19;20015;-79
2022/09/05 02:44:14;;;;;;;2.10;1.77;;;;;;;18.53;75.32;100099.72;12189530;19;20015;-78
2022/09/05 02:49:09;;;;;;;2.80;1.77;;;;;;;18.62;75.38;100100.75;12213353;19;20317;-79
2022/09/05 02:53:33;;;;;;;3.05;1.95;;;;;;;18.55;75.29;100105.84;12111728;19;2005804;-80
2022/09/05 02:58:07;;;;;;;2.67;1.90;;;;;;;18.49;76.31;100104.25;12198784;19;20015;-80
2022/09/05 03:02:25;;;;;;;4.15;2.00;;;;;;;18.51;76.28;100096.44;12223533;19;20010;-80
2022/09/05 03:06:55;;;;;;;2.67;2.10;;;;;;;18.49;76.54;100104.25;12222466;19;20010;-80
2022/09/05 03:10:59;;;;;;;5.40;1.60;;;;;;;18.50;76.40;100106.75;12194315;19;20121;-79
2022/09/05 03:15:39;;;;;;;3.03;1.80;;;;;;;18.53;76.44;100110.91;12210528;19;20029;-79
2022/09/05 03:19:59;;;;;;;3.72;1.95;;;;;;;18.56;76.19;100111.16;12188605;19;20007;-79
2022/09/05 03:24:22;;;;;;;3.22;2.10;;;;;;;18.53;76.15;100124.84;12208751;19;20010;-79
2022/09/05 03:28:54;;;;;;;5.25;2.45;;;;;;;18.37;76.38;100124.19;12186231;19;20477;-79
2022/09/05 03:33:15;;;;;;;3.30;2.27;;;;;;;18.14;76.74;100118.25;12210166;19;20020;-80
2022/09/05 03:37:32;;;;;;;5.00;2.50;;;;;;;17.96;76.81;100132.91;12188113;19;20150;-79
2022/09/05 03:42:01;;;;;;;3.15;2.17;;;;;;;17.76;77.67;100126.34;12213000;19;20098;-80
2022/09/05 03:46:30;;;;;;;4.15;2.70;;;;;;;17.57;78.65;100139.28;12192972;19;20033;-81
2022/09/05 03:50:58;;;;;;;5.07;2.55;;;;;;;17.35;80.04;100130.53;12224891;19;20075;-80
2022/09/05 03:55:51;;;;;;;5.70;2.50;;;;;;;17.21;80.25;100139.50;12201654;19;20011;-80
2022/09/05 04:00:26;;;;;;;3.72;2.10;;;;;;;17.16;80.94;100125.59;12229818;19;20028;-81
2022/09/05 04:04:47;;;;;;;3.58;2.22;;;;;;;17.12;81.51;100124.50;12203998;19;20021;-81
2022/09/05 04:09:23;;;;;;;4.78;2.70;;;;;;;17.08;81.17;100120.63;12226373;19;20110;-82
2022/09/05 04:13:54;;;;;;;3.20;2.40;;;;;;;16.89;83.12;100123.19;12198225;19;20033;-80
2022/09/05 04:18:00;;;;;;;3.72;2.35;;;;;;;16.76;83.69;100123.81;12219928;19;20009;-79
2022/09/05 04:22:33;;;;;;;3.65;2.33;;;;;;;16.69;84.47;100129.66;12204262;19;20337;-80
2022/09/05 04:26:44;;;;;;;5.03;2.40;;;;;;;16.60;85.04;100131.34;12223041;19;20039;-80
2022/09/05 04:30:57;;;;;;;4.18;2.47;;;;;;;16.53;85.67;100133.56;12246309;19;20078;-79
2022/09/05 04:35:36;;;;;;;3.83;2.30;;;;;;;16.46;85.90;100138.63;12219659;19;20014;-79
2022/09/05 04:39:38;;;;;;;4.65;2.40;;;;;;;16.35;86.26;100140.56;12224738;19;20094;-79
2022/09/05 04:43:50;;;;;;;4.65;2.70;;;;;;;16.26;86.82;100134.72;12205623;19;20002;-80
2022/09/05 04:47:53;;;;;;;6.25;2.95;;;;;;;16.20;87.42;100140.59;12234821;19;20015;-80
2022/09/05 04:52:01;;;;;;;4.28;3.10;;;;;;;16.17;87.98;100156.69;12208672;19;20015;-80
2022/09/05 04:56:13;;;;;;;3.60;2.47;;;;;;;16.11;89.26;100157.00;12223726;19;20014;-80
2022/09/05 05:00:38;;;;;;;4.57;2.85;;;;;;;16.07;90.23;100155.88;12224579;19;20014;-79
2022/09/05 05:05:03;;;;;;;5.18;2.45;;;;;;;16.05;90.17;100167.28;12204792;19;20021;-79
2022/09/05 05:09:37;;;;;;;4.80;2.65;;;;;;;16.03;91.23;100171.44;12220693;19;20011;-80
2022/09/05 05:13:47;;;;;;;3.88;2.80;;;;;;;16.05;92.19;100175.59;12210169;19;20011;-79
2022/09/05 05:18:32;;;;;;;4.35;2.80;;;;;;;16.11;91.91;100171.72;12248661;19;20029;-79
2022/09/05 05:23:03;;;;;;;3.28;2.35;;;;;;;16.19;91.55;100170.34;12229311;19;20089;-79
2022/09/05 05:27:14;;;;;;;4.13;2.22;;;;;;;16.28;91.46;100177.00;12236454;19;20011;-80
2022/09/05 05:31:22;;;;;;;3.30;2.17;;;;;;;16.35;90.84;100171.97;12204353;19;20154;-79
2022/09/05 05:35:32;;;;;;;3.78;2.42;;;;;;;16.39;91.88;100175.88;12230854;19;20011;-79
2022/09/05 05:39:48;;;;;;;4.10;2.78;;;;;;;16.46;91.74;100178.38;12235365;19;20033;-79
2022/09/05 05:43:50;;;;;;;4.75;2.15;;;;;;;16.51;91.33;100177.53;12207702;19;20011;-80
2022/09/05 05:48:05;;;;;;;3.77;2.03;;;;;;;16.60;91.55;100167.53;12232290;19;20023;-80
2022/09/05 05:52:27;;;;;;;3.05;2.20;;;;;;;16.70;91.16;100180.56;12201125;19;21986;-79
2022/09/05 05:57:03;;;;;;;4.63;2.20;;;;;;;16.80;91.22;100186.97;12221418;19;20010;-79
2022/09/05 06:01:29;;;;;;;4.35;2.55;;;;;;;16.90;91.28;100190.84;12199198;19;20011;-78
2022/09/05 06:05:48;;;;;;;3.35;2.17;;;;;;;16.97;91.40;100196.94;12212095;19;20018;-79
2022/09/05 06:10:32;;;;;;;5.68;2.80;;;;;;;17.03;91.64;100198.59;12191436;19;20006;-78
2022/09/05 06:15:25;;;;;;;4.45;2.22;;;;;;;17.11;91.22;100198.03;12211129;19;20086;-79
2022/09/05 06:19:53;;;;;;;5.32;2.60;;;;;;;17.15;91.19;100198.28;12200574;19;20018;-78
2022/09/05 06:24:52;;;;;;;4.22;2.70;;;;;;;17.26;91.24;100197.13;12213246;19;20081;-78
2022/09/05 06:29:04;;;;;;;3.58;2.63;;;;;;;17.36;90.80;100193.47;12196115;19;20044;-78
2022/09/05 06:33:43;;;;;;;4.15;2.63;;;;;;;17.49;91.10;100203.97;12216679;19;20045;-78
2022/09/05 06:38:01;;;;;;;4.97;2.47;;;;;;;17.64;90.48;100208.63;12196324;19;20014;-78
2022/09/05 06:42:24;;;;;;;6.10;2.75;;;;;;;17.77;90.13;100214.44;12217438;19;20020;-78
2022/09/05 06:46:52;;;;;;;3.97;2.45;;;;;;;17.91;89.27;100216.59;12198267;19;20010;-78
2022/09/05 06:51:32;;;;;;;4.82;2.30;;;;;;;18.03;89.54;100213.47;12219788;19;20020;-78
2022/09/05 06:56:22;;;;;;;3.22;2.42;;;;;;;18.17;88.84;100215.31;12195825;19;20019;-78
2022/09/05 07:00:37;;;;;;;6.00;2.53;;;;;;;18.24;88.37;100211.34;12216469;19;20003;-78
2022/09/05 07:04:42;;;;;;;;;;;;;;;18.32;88.59;100219.94;12237672;19;20014;-78
2022/09/05 07:09:29;;;;;;;5.47;2.88;;;;;;;18.62;87.09;100217.97;12200087;19;20172;-78
2022/09/05 07:13:41;;;;;;;10.43;3.13;;;;;;;18.86;85.15;100221.69;12210541;19;20014;-78
2022/09/05 07:18:00;;;;;;;5.32;3.03;;;;;;;19.02;84.54;100224.31;12185608;19;20062;-78
2022/09/05 07:22:33;;;;;;;5.75;3.03;;;;;;;19.32;83.58;100229.53;12157905;19;20011;-78
2022/09/05 07:26:51;;;;;;;4.95;2.83;;;;;;;19.67;81.80;100227.47;12160687;19;20010;-78
2022/09/05 07:31:04;;;;;;;5.32;3.33;;;;;;;20.08;79.99;100234.41;12205295;19;20018;-78
2022/09/05 07:35:12;;;;;;;7.20;3.15;;;;;;;20.52;78.49;100233.16;12186938;19;20015;-77
2022/09/05 07:39:22;;;;;;;5.38;2.88;;;;;;;21.09;76.90;100233.81;12209975;19;20022;-77
2022/09/05 07:43:40;;;;;;;5.80;2.65;;;;;;;21.71;74.12;100230.63;12205573;19;20367;-77
2022/09/05 07:47:58;;;;;;;5.35;3.13;;;;;;;22.34;71.41;100237.31;12188080;19;19999;-78
2022/09/05 07:52:09;;;;;;;4.50;2.63;;;;;;;22.61;70.15;100230.78;12209879;19;20660;-78
2022/09/05 07:56:47;;;;;;;5.00;2.90;;;;;;;22.71;69.37;100231.31;12195616;19;20006;-78
2022/09/05 08:01:13;;;;;;;3.75;2.45;;;;;;;22.81;68.91;100241.44;12215620;19;20086;-78
2022/09/05 08:05:18;;;;;;;5.13;2.30;;;;;;;23.14;67.88;100238.34;12190522;19;20019;-78
2022/09/05 08:09:52;;;;;;;4.90;2.40;;;;;;;23.17;67.21;100234.88;12188894;19;20007;-78
2022/09/05 08:14:41;;;;;;;3.45;2.40;;;;;;;23.30;65.57;100238.75;12182003;19;20029;-78
2022/09/05 08:18:53;;;;;;;2.80;2.05;;;;;;;23.38;65.25;100243.56;12208724;19;20023;-78
2022/09/05 08:23:22;;;;;;;4.28;2.50;;;;;;;23.38;64.40;100235.13;12205505;19;20350;-78
2022/09/05 08:27:55;;;;;;;6.57;2.70;;;;;;;23.74;61.91;100234.97;12187412;19;20007;-79
2022/09/05 08:32:12;;;;;;;2.83;2.00;;;;;;;24.36;60.77;100233.00;12197373;19;20571;-78
2022/09/05 08:36:40;;;;;;;4.88;2.45;;;;;;;24.70;58.67;100238.63;12228775;19;20014;-78
2022/09/05 08:40:53;;;;;;;5.57;2.50;;;;;;;24.91;57.86;100233.09;12224471;19;20019;-78
2022/09/05 08:45:09;;;;;;;5.07;2.00;;;;;;;25.09;55.91;100221.78;12200128;19;20011;-79
2022/09/05 08:49:31;;;;;;;5.60;2.15;;;;;;;25.40;55.13;100225.16;12226722;19;20041;-78
2022/09/05 08:53:48;;;;;;;6.72;2.38;;;;;;;25.79;52.92;100219.44;12201034;19;20011;-79
2022/09/05 08:58:14;;;;;;;6.25;2.60;;;;;;;26.15;51.92;100216.06;12223233;19;20403;-79
2022/09/05 09:02:47;;;;;;;4.47;2.35;;;;;;;26.22;51.56;100207.84;12208867;19;20007;-79
2022/09/05 09:07:30;;;;;;;4.20;2.35;;;;;;;26.34;48.84;100207.09;12225875;19;20031;-79
2022/09/05 09:12:18;;;;;;;3.85;2.42;;;;;;;26.69;49.97;100212.44;12206755;19;20007;-79
2022/09/05 09:16:59;;;;;;;4.00;1.58;;;;;;;27.10;48.25;100204.97;12230837;19;20006;-79
2022/09/05 09:21:27;;;;;;;3.90;2.05;;;;;;;27.38;47.58;100216.47;12204090;19;20011;-80
2022/09/05 09:25:48;;;;;;;3.13;1.92;;;;;;;27.79;46.31;100198.41;12200464;19;20006;-79
2022/09/05 09:29:54;;;;;;;2.90;1.80;;;;;;;28.12;44.95;100206.72;12209491;19;20011;-80
2022/09/05 09:34:22;;;;;;;3.92;1.92;;;;;;;28.13;44.85;100199.03;12228792;19;20011;-80
2022/09/05 09:38:42;;;;;;;3.58;2.00;;;;;;;28.21;44.42;100205.75;12207010;19;20023;-80
2022/09/05 09:42:56;;;;;;;5.28;2.08;;;;;;;28.58;43.54;100201.56;12231928;19;20082;-80
2022/09/05 09:46:58;;;;;;;3.47;2.08;;;;;;;28.61;43.72;100197.19;12210027;19;20011;-81
2022/09/05 09:51:42;;;;;;;3.88;1.92;;;;;;;28.38;43.58;100200.59;12234003;19;20010;-80
2022/09/05 09:56:12;;;;;;;3.80;2.15;;;;;;;28.54;44.18;100200.66;12233542;19;20035;-80
2022/09/05 10:00:21;;;;;;;4.65;2.30;;;;;;;28.77;43.31;100198.06;12213169;19;20081;-79
2022/09/05 10:04:49;;;;;;;3.30;2.28;;;;;;;29.22;42.54;100194.00;12227861;19;20011;-80
2022/09/05 10:09:31;;;;;;;6.40;2.20;;;;;;;29.38;41.70;100188.31;12208448;19;20039;-81
2022/09/05 10:14:01;;;;;;;2.95;2.20;;;;;;;28.92;42.21;100190.78;12233746;19;20002;-80
2022/09/05 10:18:33;;;;;;;4.18;2.40;;;;;;;28.61;43.01;100178.16;12182576;19;20023;-80
2022/09/05 10:23:08;;;;;;;4.85;2.70;;;;;;;28.82;41.85;100175.13;12232287;19;20030;-80
2022/09/05 10:27:36;;;;;;;3.58;2.00;;;;;;;28.91;41.29;100174.09;12202798;19;20011;-80
2022/09/05 10:31:56;;;;;;;4.68;2.03;;;;;;;29.19;41.04;100169.19;12247544;19;20006;-79
2022/09/05 10:36:26;;;;;;;2.90;2.20;;;;;;;29.71;40.12;100153.00;12219154;19;20018;-81
2022/09/05 10:40:33;;;;;;;4.93;2.38;;;;;;;29.68;40.04;100151.72;12191942;19;20018;-79
2022/09/05 10:44:56;;;;;;;2.88;1.98;;;;;;;29.76;39.38;100147.03;12208357;19;20012;-80
2022/09/05 10:49:06;;;;;;;2.85;2.00;;;;;;;29.79;39.54;100132.09;12227470;19;20010;-80
2022/09/05 10:53:16;;;;;;;4.85;1.90;;;;;;;29.83;38.56;100124.47;12207329;19;20011;-82
2022/09/05 10:57:42;;;;;;;2.60;2.10;;;;;;;30.00;38.25;100125.22;12226657;19;20369;-80
2022/09/05 11:02:06;;;;;;;6.03;2.20;;;;;;;30.38;37.08;100113.03;12225115;19;20002;-80
2022/09/05 11:06:41;;;;;;;4.20;1.90;;;;;;;30.82;35.70;100104.13;12086595;19;2004532;-80
2022/09/05 11:11:11;;;;;;;2.55;1.75;;;;;;;30.94;35.34;100105.97;12214103;19;20356;-79
2022/09/05 11:15:41;;;;;;;5.15;2.17;;;;;;;31.24;35.13;100098.31;12119168;19;2004729;-80
2022/09/05 11:20:12;;;;;;;5.30;2.20;;;;;;;31.68;34.93;100091.22;12221781;19;20002;-81
2022/09/05 11:24:50;;;;;;;3.00;2.08;;;;;;;31.84;33.98;100094.72;12120315;19;2004705;-81
2022/09/05 11:29:06;;;;;;;3.20;2.00;;;;;;;31.77;34.04;100086.91;12220422;19;20330;-81
2022/09/05 11:33:21;;;;;;;3.20;2.13;;;;;;;31.79;34.60;100086.50;12197652;19;20014;-80
2022/09/05 11:37:49;;;;;;;4.10;2.08;;;;;;;32.13;33.26;100075.97;12220849;19;20015;-80
2022/09/05 11:42:40;;;;;;;2.80;1.85;;;;;;;32.50;32.59;100078.00;12197236;19;20027;-80
2022/09/05 11:47:11;;;;;;;4.95;1.80;;;;;;;32.92;32.47;100068.19;12197355;19;20020;-80
2022/09/05 11:51:42;;;;;;;3.58;1.75;;;;;;;33.66;30.60;100061.38;12120541;19;2004419;-81
2022/09/05 11:56:03;;;;;;;2.47;2.00;;;;;;;34.40;29.49;100071.44;12215581;19;20540;-80
2022/09/05 12:00:17;;;;;;;3.05;2.03;;;;;;;35.03;27.88;100063.31;12189772;19;20006;-79
2022/09/05 12:05:03;;;;;;;3.03;2.38;;;;;;;35.73;28.01;100063.63;12209398;19;20661;-81
2022/09/05 12:09:40;;;;;;;5.07;2.33;;;;;;;35.93;27.22;100052.47;12205845;19;20010;-81
2022/09/05 12:13:46;;;;;;;4.45;2.38;;;;;;;36.23;26.40;100046.22;12229906;19;20009;-82
2022/09/05 12:18:26;;;;;;;5.80;2.50;;;;;;;36.50;25.43;100043.56;12207340;19;20018;-81
2022/09/05 12:22:52;;;;;;;3.17;2.40;;;;;;;36.68;25.46;100039.78;12230016;19;20483;-81
2022/09/05 12:27:07;;;;;;;3.58;2.10;;;;;;;36.65;24.98;100038.56;12208182;19;20046;-83
2022/09/05 12:31:40;;;;;;;2.88;1.92;;;;;;;36.60;25.42;100030.41;12229190;19;20010;-80
2022/09/05 12:36:35;;;;;;;3.22;2.33;;;;;;;36.95;25.05;100025.59;12185099;19;20007;-81
2022/09/05 12:41:22;;;;;;;3.00;2.10;;;;;;;37.62;24.38;100015.44;12232007;19;20007;-81
2022/09/05 12:45:54;;;;;;;4.18;2.15;;;;;;;38.45;23.26;99999.94;12123376;19;2004191;-80
2022/09/05 12:50:19;;;;;;;2.92;2.08;;;;;;;39.52;22.23;100008.72;12200985;19;20031;-82
2022/09/05 12:54:32;;;;;;;3.65;2.30;;;;;;;39.45;21.19;100003.91;12228278;19;20023;-80
2022/09/05 12:58:36;;;;;;;2.40;2.20;;;;;;;39.96;20.34;99992.94;12200910;19;20017;-81
2022/09/05 13:03:03;;;;;;;3.28;2.10;;;;;;;40.59;20.28;99988.97;12204250;19;20094;-82
2022/09/05 13:07:37;;;;;;;3.15;1.90;;;;;;;40.46;19.69;99988.06;12213876;19;20351;-83
2022/09/05 13:12:02;;;;;;;4.57;2.10;;;;;;;39.64;20.62;99987.84;12195985;19;20006;-80
2022/09/05 13:16:28;;;;;;;3.13;2.30;;;;;;;39.90;20.42;99982.38;12219320;19;20021;-80
2022/09/05 13:20:35;;;;;;;3.03;1.98;;;;;;;40.37;20.32;99985.81;12179867;19;20015;-81
2022/09/05 13:24:40;;;;;;;2.85;2.33;;;;;;;41.14;19.67;99992.94;12220139;19;20539;-80
2022/09/05 13:28:51;;;;;;;3.20;2.25;;;;;;;41.36;19.66;99987.31;12217714;19;20013;-81
2022/09/05 13:33:35;;;;;;;3.25;2.38;;;;;;;41.50;19.00;99968.78;12200154;19;20042;-79
2022/09/05 13:38:23;;;;;;;2.78;2.30;;;;;;;41.25;18.95;99974.44;12223240;19;20010;-80
2022/09/05 13:43:18;;;;;;;3.00;1.95;;;;;;;40.69;19.31;99959.00;12118278;19;2004494;-79
2022/09/05 13:47:49;;;;;;;3.42;2.15;;;;;;;41.01;19.33;99954.44;12199686;19;20018;-79
2022/09/05 13:52:13;;;;;;;3.97;2.20;;;;;;;41.50;18.80;99951.44;12215616;19;20078;-80
2022/09/05 13:56:22;;;;;;;7.63;2.30;;;;;;;41.26;18.56;99958.72;12178488;19;20007;-78
2022/09/05 14:00:59;;;;;;;2.50;2.17;;;;;;;40.96;18.59;99954.97;12201904;19;20014;-78
2022/09/05 14:05:41;;;;;;;32.95;5.38;;;;;;;39.07;19.95;99946.56;12179483;19;20086;-81
2022/09/05 14:10:02;;;;;;;3.03;2.00;;;;;;;37.70;21.28;99943.47;12177734;19;20083;-79
2022/09/05 14:14:09;;;;;;;3.17;2.17;;;;;;;36.03;23.49;99941.81;12181909;19;20097;-80
2022/09/05 14:18:19;;;;;;;2.85;2.15;;;;;;;34.87;24.30;99928.41;12214726;19;20019;-83
2022/09/05 14:22:52;;;;;;;5.75;2.65;;;;;;;34.22;25.03;99931.28;12208147;19;20010;-80
2022/09/05 14:26:56;;;;;;;5.97;2.22;;;;;;;33.85;24.84;99933.66;12193305;19;20014;-80
2022/09/05 14:31:18;;;;;;;5.28;2.22;;;;;;;33.39;25.80;99925.75;12207901;19;20681;-80
2022/09/05 14:35:47;;;;;;;;;;;;;;;33.17;25.30;99930.53;12186404;19;20002;-82
2022/09/05 14:40:34;;;;;;;3.35;1.98;;;;;;;33.80;24.23;99926.31;12209859;19;19936;-81
2022/09/05 14:45:10;;;;;;;4.82;1.60;;;;;;;34.45;23.05;99919.44;12189136;19;20475;-82
2022/09/05 14:49:21;;;;;;;2.85;2.00;;;;;;;35.21;22.67;99917.25;12213007;19;20459;-81
2022/09/05 14:53:26;;;;;;;2.88;1.88;;;;;;;35.35;22.58;99922.13;12191773;19;20031;-79
2022/09/05 14:57:48;;;;;;;5.57;2.20;;;;;;;34.96;23.51;99919.38;12204355;19;20007;-79
2022/09/05 15:02:10;;;;;;;3.10;2.20;;;;;;;35.14;23.08;99915.25;12184981;19;20374;-80
2022/09/05 15:06:31;;;;;;;;;;;;;;;34.90;23.70;99913.25;12203263;19;20017;-79
2022/09/05 15:10:35;;;;;;;4.40;2.20;;;;;;;34.33;23.63;99908.41;12202081;19;19926;-79
2022/09/05 15:15:16;;;;;;;2.83;2.03;;;;;;;33.57;24.35;99915.22;12181100;19;20489;-79
2022/09/05 15:19:53;;;;;;;2.38;1.90;;;;;;;32.99;24.62;99902.72;12200971;19;20015;-78
2022/09/05 15:24:30;;;;;;;2.58;1.80;;;;;;;32.64;25.10;99894.75;12178425;19;20010;-78
2022/09/05 15:28:38;;;;;;;3.80;1.80;;;;;;;32.12;25.28;99891.88;12229152;19;20015;-79
2022/09/05 15:32:41;;;;;;;3.05;1.65;;;;;;;32.02;25.29;99892.59;12230409;19;19998;-80
2022/09/05 15:36:46;;;;;;;4.32;1.50;;;;;;;31.94;25.67;99890.91;12258813;19;20002;-79
2022/09/05 15:41:01;;;;;;;1.77;1.63;;;;;;;31.92;25.24;99877.06;12248324;19;20034;-82
2022/09/05 15:45:10;;;;;;;5.07;1.80;;;;;;;32.04;25.69;99878.78;12178332;19;20024;-79
2022/09/05 15:49:38;;;;;;;3.10;1.70;;;;;;;32.03;25.58;99871.44;12206697;19;20003;-79
2022/09/05 15:53:39;;;;;;;3.78;1.90;;;;;;;31.66;25.73;99869.44;12183749;19;20031;-80
2022/09/05 15:57:53;;;;;;;3.70;1.90;;;;;;;31.29;25.93;99861.69;12209097;19;20472;-78
2022/09/05 16:01:55;;;;;;;3.38;1.60;;;;;;;31.07;26.14;99857.75;12196240;19;20472;-79
2022/09/05 16:06:06;;;;;;;4.65;2.10;;;;;;;30.85;26.59;99859.53;12184927;19;20471;-78
2022/09/05 16:10:31;;;;;;;4.40;2.03;;;;;;;30.88;26.95;99858.75;12207508;19;20011;-78
2022/09/05 16:14:55;;;;;;;2.15;1.58;;;;;;;30.81;26.86;99863.50;12181462;19;20014;-78
2022/09/05 16:19:23;;;;;;;3.20;2.03;;;;;;;30.76;26.87;99855.31;12205288;19;20014;-78
2022/09/05 16:23:52;;;;;;;2.83;1.70;;;;;;;30.65;26.62;99860.84;12182802;19;20016;-78
2022/09/05 16:27:59;;;;;;;5.00;1.83;;;;;;;30.50;26.29;99853.31;12205255;19;20007;-78
2022/09/05 16:32:01;;;;;;;4.05;1.92;;;;;;;30.30;26.90;99850.56;12179041;19;20514;-78
2022/09/05 16:36:25;;;;;;;3.53;1.70;;;;;;;30.23;27.22;99841.94;12202424;19;20007;-77
2022/09/05 16:40:37;;;;;;;3.15;1.80;;;;;;;30.07;27.24;99846.91;12204979;19;20139;-78
2022/09/05 16:44:49;;;;;;;7.93;2.10;;;;;;;29.87;27.63;99843.34;12189188;19;20014;-78
2022/09/05 16:49:03;;;;;;;3.10;1.80;;;;;;;29.75;27.63;99847.19;12224213;19;20006;-78
2022/09/05 16:53:21;;;;;;;2.77;1.67;;;;;;;29.58;27.73;99839.97;12195040;19;20034;-77
2022/09/05 16:57:35;;;;;;;1.98;1.58;;;;;;;29.43;27.73;99830.34;12209857;19;20610;-80
2022/09/05 17:01:43;;;;;;;4.18;2.17;;;;;;;29.35;27.84;99836.28;12218376;19;20025;-79
2022/09/05 17:05:54;;;;;;;3.50;2.03;;;;;;;29.24;27.81;99831.22;12192036;19;20024;-79
2022/09/05 17:10:06;;;;;;;9.23;5.68;;;;;;;29.12;27.94;99827.72;12215982;19;20031;-79
2022/09/05 17:14:15;;;;;;;8.27;3.63;;;;;;;28.94;28.17;99825.28;12189340;19;20015;-78
2022/09/05 17:18:21;;;;;;;11.52;5.22;;;;;;;28.85;28.54;99819.88;12217724;19;20055;-78
2022/09/05 17:22:43;;;;;;;4.28;2.78;;;;;;;28.71;29.52;99824.41;12222126;19;20014;-81
2022/09/05 17:27:12;;;;;;;3.95;2.30;;;;;;;28.53;29.63;99822.00;12200242;19;20014;-81
2022/09/05 17:31:36;;;;;;;7.90;1.90;;;;;;;28.32;30.14;99819.47;12220356;19;20021;-81
2022/09/05 17:36:00;;;;;;;4.80;1.83;;;;;;;28.26;30.11;99820.13;12200191;19;20010;-81
2022/09/05 17:40:21;;;;;;;6.32;2.00;;;;;;;27.97;30.45;99815.78;12224141;19;20002;-81
2022/09/05 17:44:30;;;;;;;6.40;2.67;;;;;;;27.58;31.41;99822.06;12195198;19;20133;-81
2022/09/05 17:48:47;;;;;;;5.00;2.22;;;;;;;27.22;32.08;99823.94;12224375;19;20019;-81
2022/09/05 17:53:12;;;;;;;7.38;2.42;;;;;;;26.88;32.52;99825.34;12202329;19;20006;-81
2022/09/05 17:57:27;;;;;;;4.60;2.20;;;;;;;26.56;33.13;99830.03;12225149;19;20007;-82
2022/09/05 18:01:31;;;;;;;2.97;1.90;;;;;;;26.28;33.49;99827.94;12223921;19;20035;-80
2022/09/05 18:05:55;;;;;;;4.20;2.30;;;;;;;25.99;34.26;99837.50;12188337;19;20014;-77
2022/09/05 18:09:58;;;;;;;7.68;2.45;;;;;;;25.72;34.58;99833.34;12220278;19;20006;-79
2022/09/05 18:14:14;;;;;;;2.47;1.52;;;;;;;25.48;34.58;99834.13;12197538;19;20010;-79
2022/09/05 18:18:33;;;;;;;11.20;2.58;;;;;;;25.24;35.16;99840.53;12220490;19;20106;-79
2022/09/05 18:23:09;;;;;;;5.90;2.08;;;;;;;25.01;35.90;99838.03;12220338;19;20614;-82
2022/09/05 18:27:50;;;;;;;4.18;1.92;;;;;;;24.76;36.15;99842.75;12119807;19;2004271;-82
2022/09/05 18:32:09;;;;;;;3.65;1.60;;;;;;;24.56;36.33;99837.94;12198673;19;20027;-82
2022/09/05 18:36:17;;;;;;;2.38;1.42;;;;;;;24.40;36.42;99845.34;12216328;19;20507;-82
2022/09/05 18:40:45;;;;;;;2.78;1.67;;;;;;;24.25;37.03;99846.75;12220889;19;20014;-81
2022/09/05 18:44:48;;;;;;;2.53;1.85;;;;;;;24.16;37.14;99865.69;12196662;19;20387;-80
2022/09/05 18:48:58;;;;;;;2.33;1.63;;;;;;;24.04;37.03;99855.16;12225843;19;20010;-81
2022/09/05 18:53:25;;;;;;;3.05;1.35;;;;;;;23.93;37.37;99865.97;12200830;19;20030;-81
2022/09/05 18:57:32;;;;;;;2.30;1.45;;;;;;;23.82;37.79;99871.13;12223835;19;20477;-81
2022/09/05 19:01:53;;;;;;;2.67;1.58;;;;;;;23.72;38.37;99870.69;12222595;19;20014;-81
2022/09/05 19:06:08;;;;;;;2.70;1.90;;;;;;;23.60;38.51;99869.38;12197394;19;20006;-81
2022/09/05 19:10:33;;;;;;;2.92;1.70;;;;;;;23.50;38.53;99864.13;12229878;19;20006;-82
2022/09/05 19:14:52;;;;;;;4.40;1.88;;;;;;;23.43;38.96;99861.78;12213839;19;20014;-81
2022/09/05 19:19:12;;;;;;;5.03;1.90;;;;;;;23.35;39.26;99862.66;12237375;19;20011;-82
2022/09/05 19:23:24;;;;;;;2.42;1.60;;;;;;;23.28;39.09;99850.25;12216953;19;20042;-81
2022/09/05 19:27:28;;;;;;;2.88;1.70;;;;;;;23.21;38.81;99850.78;12234774;19;20014;-81
2022/09/05 19:31:58;;;;;;;2.63;1.80;;;;;;;23.16;38.85;99851.75;12241192;19;20014;-82
2022/09/05 19:36:30;;;;;;;6.32;1.90;;;;;;;23.08;39.26;99851.78;12205494;19;20017;-80
2022/09/05 19:40:52;;;;;;;3.20;1.73;;;;;;;22.96;39.72;99844.88;12223753;19;20030;-80
2022/09/05 19:45:24;;;;;;;5.60;1.67;;;;;;;22.88;39.48;99842.03;12133423;19;20018;-80
2022/09/05 19:50:04;;;;;;;6.03;1.73;;;;;;;22.86;40.00;99847.97;12179412;19;20097;-81
2022/09/05 19:54:07;;;;;;;3.40;1.65;;;;;;;22.83;40.36;99839.38;12134264;19;20014;-82
2022/09/05 19:58:14;;;;;;;4.22;1.83;;;;;;;22.76;40.32;99831.47;12200954;19;20014;-80
2022/09/05 20:02:24;;;;;;;3.78;1.75;;;;;;;22.72;40.30;99827.63;12210418;19;20424;-80
2022/09/05 20:06:28;;;;;;;3.60;1.92;;;;;;;22.65;40.62;99830.94;12233564;19;20637;-81
2022/09/05 20:10:34;;;;;;;1.80;1.40;;;;;;;22.60;40.83;99830.28;12238328;19;20044;-80